createdAt,value
2019-04-27T00:01:53.905Z,58.27
2019-04-27T00:04:48.620Z,58.46
2019-04-27T00:07:40.234Z,59.23
2019-04-27T00:10:29.527Z,59.64
2019-04-27T00:13:02.200Z,60.08
2019-04-27T00:16:09.858Z,59.41
2019-04-27T00:18:56.337Z,58.40
2019-04-27T00:21:33.369Z,58.20
2019-04-27T00:24:03.576Z,58.32
2019-04-27T00:26:33.705Z,59.53
2019-04-27T00:29:04.175Z,60.43
2019-04-27T00:31:34.772Z,60.62
2019-04-27T00:34:05.095Z,60.45
2019-04-27T00:36:43.542Z,60.54
2019-04-27T00:39:38.867Z,60.05
2019-04-27T00:42:09.249Z,60.78
2019-04-27T00:44:39.451Z,60.13
2019-04-27T00:47:09.579Z,59.80
2019-04-27T00:49:39.710Z,59.32
2019-04-27T00:52:09.829Z,60.17
2019-04-27T00:54:39.954Z,60.82
2019-04-27T00:57:24.539Z,60.94
2019-04-27T01:00:13.529Z,61.17
2019-04-27T01:02:50.586Z,61.01
2019-04-27T01:05:23.081Z,60.78
2019-04-27T01:07:53.741Z,61.20
2019-04-27T01:10:25.159Z,61.04
2019-04-27T01:12:55.484Z,60.70
2019-04-27T01:15:25.698Z,61.44
2019-04-27T01:18:11.001Z,60.78
2019-04-27T01:20:28.431Z,60.57
2019-04-27T01:22:59.560Z,60.84
2019-04-27T01:25:40.720Z,60.35
2019-04-27T01:28:23.631Z,59.74
2019-04-27T01:30:56.978Z,59.72
2019-04-27T01:33:28.313Z,59.73
2019-04-27T01:35:59.023Z,61.06
2019-04-27T01:38:29.187Z,60.86
2019-04-27T01:41:00.578Z,60.76
2019-04-27T01:43:31.013Z,60.90
2019-04-27T01:46:01.619Z,61.09
2019-04-27T01:48:32.022Z,61.28
2019-04-27T01:51:02.157Z,61.51
2019-04-27T01:53:32.374Z,61.88
2019-04-27T01:56:02.530Z,63.08
2019-04-27T01:58:32.689Z,62.98
2019-04-27T02:01:24.889Z,63.07
2019-04-27T02:04:15.640Z,63.08
2019-04-27T02:06:48.722Z,64.81
2019-04-27T02:09:20.227Z,64.00
2019-04-27T02:11:50.368Z,63.87
2019-04-27T02:14:20.586Z,63.75
2019-04-27T02:16:50.757Z,63.08
2019-04-27T02:19:20.899Z,63.31
2019-04-27T02:21:51.551Z,63.58
2019-04-27T02:24:21.841Z,64.15
2019-04-27T02:26:51.972Z,64.12
2019-04-27T02:29:29.259Z,64.53
2019-04-27T02:32:17.132Z,65.46
2019-04-27T02:34:52.059Z,65.36
2019-04-27T02:37:22.179Z,64.98
2019-04-27T02:39:52.310Z,65.32
2019-04-27T02:42:24.082Z,65.90
2019-04-27T02:44:54.364Z,65.94
2019-04-27T02:47:24.478Z,65.72
2019-04-27T02:49:54.616Z,65.65
2019-04-27T02:52:36.292Z,65.80
2019-04-27T02:55:09.562Z,65.65
2019-04-27T02:57:40.036Z,65.71
2019-04-27T03:00:11.185Z,65.50
2019-04-27T03:02:45.493Z,66.81
2019-04-27T03:05:40.590Z,67.02
2019-04-27T03:08:10.727Z,66.92
2019-04-27T03:10:40.840Z,66.98
2019-04-27T03:13:30.173Z,67.51
2019-04-27T03:16:14.113Z,67.53
2019-04-27T03:19:14.816Z,67.98
2019-04-27T03:21:53.943Z,67.84
2019-04-27T03:24:43.054Z,68.11
2019-04-27T03:27:15.054Z,68.70
2019-04-27T03:29:45.279Z,68.01
2019-04-27T03:32:15.424Z,68.14
2019-04-27T03:34:45.688Z,68.38
2019-04-27T03:37:16.998Z,67.82
2019-04-27T03:39:49.722Z,68.22
2019-04-27T03:42:20.682Z,68.00
2019-04-27T03:44:51.056Z,67.69
2019-04-27T03:47:21.196Z,67.53
2019-04-27T03:49:51.333Z,67.55
2019-04-27T03:52:30.536Z,67.75
2019-04-27T03:55:06.955Z,67.37
2019-04-27T03:57:49.694Z,68.86
2019-04-27T04:00:21.774Z,68.32
2019-04-27T04:02:52.086Z,68.53
2019-04-27T04:05:22.308Z,67.65
2019-04-27T04:07:52.433Z,68.42
2019-04-27T04:10:23.751Z,68.17
2019-04-27T04:13:12.817Z,68.09
2019-04-27T04:16:00.187Z,68.22
2019-04-27T04:18:50.054Z,68.38
2019-04-27T04:21:20.272Z,68.00
2019-04-27T04:23:50.409Z,68.73
2019-04-27T04:26:20.511Z,68.39
2019-04-27T04:28:50.663Z,68.00
2019-04-27T04:31:21.138Z,68.16
2019-04-27T04:33:51.388Z,67.79
2019-04-27T04:36:21.500Z,67.44
2019-04-27T04:38:51.666Z,67.72
2019-04-27T04:41:32.908Z,67.60
2019-04-27T04:44:12.468Z,67.87
2019-04-27T04:46:50.275Z,67.35
2019-04-27T04:49:20.563Z,66.79
2019-04-27T04:51:51.661Z,66.72
2019-04-27T04:54:24.568Z,67.14
2019-04-27T04:56:53.737Z,66.95
2019-04-27T04:59:23.927Z,67.09
2019-04-27T05:01:54.063Z,66.13
2019-04-27T05:04:24.230Z,66.59
2019-04-27T05:06:54.376Z,66.67
2019-04-27T05:09:24.513Z,65.72
2019-04-27T05:11:54.634Z,66.10
2019-04-27T05:14:24.767Z,65.91
2019-04-27T05:16:54.900Z,65.46
2019-04-27T05:19:25.562Z,65.30
2019-04-27T05:21:56.599Z,64.67
2019-04-27T05:24:26.825Z,64.29
2019-04-27T05:26:59.029Z,64.08
2019-04-27T05:29:29.450Z,63.80
2019-04-27T05:31:59.583Z,63.82
2019-04-27T05:34:29.748Z,64.24
2019-04-27T05:37:01.109Z,63.71
2019-04-27T05:39:31.299Z,63.71
2019-04-27T05:42:02.566Z,62.99
2019-04-27T05:45:15.389Z,62.30
2019-04-27T05:47:52.047Z,62.03
2019-04-27T05:50:22.212Z,61.58
2019-04-27T05:52:52.312Z,61.58
2019-04-27T05:55:22.542Z,60.41
2019-04-27T05:57:53.751Z,60.65
2019-04-27T06:00:23.880Z,60.31
2019-04-27T06:02:55.812Z,61.27
2019-04-27T06:05:25.957Z,59.96
2019-04-27T06:07:56.077Z,59.12
2019-04-27T06:10:26.345Z,58.79
2019-04-27T06:12:56.481Z,58.56
2019-04-27T06:15:26.592Z,57.97
2019-04-27T06:17:56.802Z,58.48
2019-04-27T06:20:28.703Z,57.54
2019-04-27T06:22:58.990Z,57.47
2019-04-27T06:25:30.505Z,57.08
2019-04-27T06:28:00.875Z,56.27
2019-04-27T06:30:31.227Z,55.59
2019-04-27T06:33:01.537Z,55.36
2019-04-27T06:35:31.715Z,53.94
2019-04-27T06:38:01.901Z,54.22
2019-04-27T06:40:32.097Z,53.94
2019-04-27T06:43:02.290Z,53.76
2019-04-27T06:45:32.422Z,52.76
2019-04-27T06:48:02.560Z,53.14
2019-04-27T06:50:32.671Z,52.07
2019-04-27T06:53:02.807Z,51.65
2019-04-27T06:55:32.955Z,51.64
2019-04-27T06:58:03.071Z,51.82
2019-04-27T07:00:33.317Z,52.18
2019-04-27T07:03:03.448Z,51.88
2019-04-27T07:05:33.582Z,51.46
2019-04-27T07:08:03.732Z,51.35
2019-04-27T07:10:33.856Z,51.43
2019-04-27T07:13:05.667Z,50.75
2019-04-27T07:15:35.814Z,51.40
2019-04-27T07:18:05.952Z,51.19
2019-04-27T07:20:36.120Z,50.72
2019-04-27T07:23:06.237Z,50.03
2019-04-27T07:25:36.408Z,49.82
2019-04-27T07:28:06.548Z,49.65
2019-04-27T07:30:36.676Z,49.96
2019-04-27T07:33:08.611Z,49.69
2019-04-27T07:35:39.306Z,49.26
2019-04-27T07:38:09.981Z,49.70
2019-04-27T07:40:42.026Z,48.37
2019-04-27T07:43:29.172Z,48.14
2019-04-27T07:45:59.157Z,47.87
2019-04-27T07:48:29.246Z,47.96
2019-04-27T07:50:59.395Z,47.73
2019-04-27T07:53:29.506Z,47.89
2019-04-27T07:56:00.756Z,47.46
2019-04-27T07:58:30.884Z,47.57
2019-04-27T08:01:01.019Z,46.27
2019-04-27T08:03:31.308Z,45.81
2019-04-27T08:06:01.451Z,45.01
2019-04-27T08:08:31.596Z,44.93
2019-04-27T08:11:01.719Z,44.24
2019-04-27T08:13:31.829Z,44.86
2019-04-27T08:16:01.952Z,43.91
2019-04-27T08:18:32.070Z,43.67
2019-04-27T08:21:02.191Z,43.29
2019-04-27T08:23:32.311Z,44.50
2019-04-27T08:26:04.250Z,42.41
2019-04-27T08:28:53.777Z,42.36
2019-04-27T08:31:31.751Z,42.53
2019-04-27T08:34:01.869Z,41.85
2019-04-27T08:36:32.013Z,41.69
2019-04-27T08:39:02.130Z,41.58
2019-04-27T08:41:33.316Z,40.98
2019-04-27T08:44:03.439Z,40.03
2019-04-27T08:46:33.666Z,40.89
2019-04-27T08:49:03.769Z,40.32
2019-04-27T08:51:33.925Z,39.53
2019-04-27T08:54:05.117Z,40.09
2019-04-27T08:56:35.259Z,38.59
2019-04-27T08:59:05.578Z,38.87
2019-04-27T09:01:35.817Z,38.17
2019-04-27T09:04:06.030Z,38.33
2019-04-27T09:06:39.866Z,38.83
2019-04-27T09:09:15.452Z,38.82
2019-04-27T09:12:01.269Z,39.33
2019-04-27T09:14:42.347Z,38.68
2019-04-27T09:17:23.188Z,39.25
2019-04-27T09:20:00.967Z,39.52
2019-04-27T09:22:31.149Z,39.56
2019-04-27T09:25:01.281Z,39.38
2019-04-27T09:27:32.949Z,39.21
2019-04-27T09:30:04.178Z,39.52
2019-04-27T09:32:34.297Z,39.61
2019-04-27T09:35:05.917Z,39.93
2019-04-27T09:37:37.252Z,39.56
2019-04-27T09:40:08.214Z,39.05
2019-04-27T09:42:38.477Z,39.98
2019-04-27T09:45:09.459Z,39.68
2019-04-27T09:47:39.690Z,39.62
2019-04-27T09:50:10.434Z,39.55
2019-04-27T09:52:40.605Z,39.71
2019-04-27T09:55:11.088Z,39.09
2019-04-27T09:57:41.223Z,39.52
2019-04-27T10:00:12.138Z,39.74
2019-04-27T10:02:42.399Z,39.86
2019-04-27T10:05:12.729Z,39.90
2019-04-27T10:07:43.157Z,39.27
2019-04-27T10:10:13.468Z,40.21
2019-04-27T10:12:43.599Z,39.16
2019-04-27T10:15:16.258Z,39.45
2019-04-27T10:17:46.427Z,40.17
2019-04-27T10:20:16.891Z,39.84
2019-04-27T10:22:47.112Z,39.84
2019-04-27T10:25:28.097Z,40.86
2019-04-27T10:27:59.396Z,40.69
2019-04-27T10:30:31.105Z,40.07
2019-04-27T10:33:01.448Z,39.88
2019-04-27T10:35:31.578Z,40.09
2019-04-27T10:38:01.683Z,40.10
2019-04-27T10:40:31.805Z,39.22
2019-04-27T10:43:03.409Z,40.49
2019-04-27T10:45:33.618Z,40.57
2019-04-27T10:48:03.773Z,41.10
2019-04-27T10:50:34.414Z,41.89
2019-04-27T10:53:06.973Z,42.02
2019-04-27T10:55:36.780Z,42.02
2019-04-27T10:58:06.906Z,42.44
2019-04-27T11:00:45.740Z,42.82
2019-04-27T11:03:17.950Z,42.71
2019-04-27T11:06:16.357Z,42.62
2019-04-27T11:08:48.346Z,43.06
2019-04-27T11:11:18.552Z,42.98
2019-04-27T11:13:50.223Z,43.49
2019-04-27T11:16:20.346Z,44.48
2019-04-27T11:18:50.483Z,45.11
2019-04-27T11:21:20.633Z,45.16
2019-04-27T11:23:50.781Z,45.62
2019-04-27T11:26:20.965Z,46.52
2019-04-27T11:28:51.102Z,46.85
2019-04-27T11:31:21.241Z,47.41
2019-04-27T11:33:54.024Z,47.38
2019-04-27T11:36:52.069Z,47.66
2019-04-27T11:39:22.376Z,47.69
2019-04-27T11:41:52.493Z,48.12
2019-04-27T11:44:22.609Z,47.74
2019-04-27T11:46:52.721Z,47.46
2019-04-27T11:49:22.905Z,47.48
2019-04-27T11:51:53.028Z,47.54
2019-04-27T11:54:23.161Z,47.44
2019-04-27T11:56:53.304Z,47.51
2019-04-27T11:59:23.438Z,47.69
2019-04-27T12:01:53.576Z,47.86
2019-04-27T12:04:23.701Z,47.56
2019-04-27T12:06:53.814Z,47.58
2019-04-27T12:09:23.938Z,47.68
2019-04-27T12:11:55.910Z,47.64
2019-04-27T12:14:25.922Z,47.82
2019-04-27T12:16:56.471Z,47.76
2019-04-27T12:19:26.964Z,47.77
2019-04-27T12:21:57.146Z,47.62
2019-04-27T12:24:27.293Z,47.23
2019-04-27T12:27:05.761Z,47.34
2019-04-27T12:29:55.735Z,47.44
2019-04-27T12:32:26.767Z,46.89
2019-04-27T12:34:56.986Z,46.69
2019-04-27T12:37:27.183Z,46.41
2019-04-27T12:39:57.658Z,46.63
2019-04-27T12:42:27.937Z,46.51
2019-04-27T12:44:58.056Z,46.83
2019-04-27T12:47:28.178Z,46.56
2019-04-27T12:49:58.357Z,47.09
2019-04-27T12:52:28.484Z,47.07
2019-04-27T12:55:17.056Z,46.92
2019-04-27T12:57:53.856Z,47.33
2019-04-27T13:00:27.148Z,47.48
2019-04-27T13:02:57.832Z,47.53
2019-04-27T13:05:30.882Z,47.55
2019-04-27T13:08:01.955Z,47.68
2019-04-27T13:10:32.072Z,47.59
2019-04-27T13:13:02.246Z,47.89
2019-04-27T13:15:32.361Z,47.25
2019-04-27T13:18:02.480Z,47.41
2019-04-27T13:20:32.603Z,47.27
2019-04-27T13:23:02.721Z,47.32
2019-04-27T13:25:33.273Z,47.39
2019-04-27T13:28:05.562Z,47.53
2019-04-27T13:30:35.907Z,47.61
2019-04-27T13:33:06.192Z,47.63
2019-04-27T13:35:36.427Z,47.51
2019-04-27T13:38:07.725Z,47.47
2019-04-27T13:40:39.775Z,47.73
2019-04-27T13:43:19.231Z,47.86
2019-04-27T13:46:19.419Z,47.42
2019-04-27T13:49:20.827Z,47.20
2019-04-27T13:51:58.764Z,47.45
2019-04-27T13:54:29.255Z,47.43
2019-04-27T13:56:59.509Z,47.39
2019-04-27T13:59:29.638Z,47.34
2019-04-27T14:01:59.778Z,47.29
2019-04-27T14:04:29.924Z,47.03
2019-04-27T14:07:00.530Z,46.78
2019-04-27T14:09:30.805Z,46.36
2019-04-27T14:12:18.756Z,45.70
2019-04-27T14:14:50.784Z,45.22
2019-04-27T14:17:20.997Z,44.94
2019-04-27T14:19:51.174Z,44.78
2019-04-27T14:22:21.697Z,44.71
2019-04-27T14:24:51.825Z,44.97
2019-04-27T14:27:23.971Z,44.94
2019-04-27T14:29:56.972Z,45.14
2019-04-27T14:32:25.970Z,45.62
2019-04-27T14:34:56.311Z,45.91
2019-04-27T14:37:28.549Z,45.77
2019-04-27T14:39:59.764Z,45.25
2019-04-27T14:42:29.936Z,44.82
2019-04-27T14:45:00.164Z,44.75
2019-04-27T14:47:30.476Z,45.05
2019-04-27T14:50:16.356Z,45.76
2019-04-27T14:52:46.567Z,46.57
2019-04-27T14:55:16.675Z,46.87
2019-04-27T14:57:52.204Z,47.60
2019-04-27T15:00:22.747Z,47.73
2019-04-27T15:02:53.050Z,47.57
2019-04-27T15:05:23.318Z,46.73
2019-04-27T15:07:54.613Z,46.56
2019-04-27T15:10:28.626Z,46.62
2019-04-27T15:12:56.802Z,46.20
2019-04-27T15:15:28.370Z,45.96
2019-04-27T15:18:04.469Z,46.05
2019-04-27T15:20:41.325Z,46.11
2019-04-27T15:23:10.672Z,45.92
2019-04-27T15:25:45.720Z,45.87
2019-04-27T15:28:15.465Z,46.52
2019-04-27T15:31:03.063Z,45.92
2019-04-27T15:33:54.589Z,46.18
2019-04-27T15:36:39.232Z,46.06
2019-04-27T15:39:15.403Z,46.02
2019-04-27T15:41:50.680Z,45.88
2019-04-27T15:44:21.821Z,45.56
2019-04-27T15:46:52.029Z,45.39
2019-04-27T15:49:22.364Z,45.52
2019-04-27T15:51:54.753Z,45.57
2019-04-27T15:54:28.738Z,45.82
2019-04-27T15:56:58.068Z,45.79
2019-04-27T15:59:30.929Z,45.62
2019-04-27T16:02:00.193Z,45.64
2019-04-27T16:04:33.163Z,45.47
2019-04-27T16:07:03.766Z,45.06
2019-04-27T16:09:34.153Z,45.19
2019-04-27T16:12:12.112Z,45.14
2019-04-27T16:14:40.202Z,45.07
2019-04-27T16:17:11.412Z,44.61
2019-04-27T16:19:46.757Z,45.19
2019-04-27T16:22:12.083Z,44.95
2019-04-27T16:24:42.320Z,44.99
2019-04-27T16:27:12.431Z,44.84
2019-04-27T16:29:42.560Z,45.14
2019-04-27T16:32:12.790Z,44.88
2019-04-27T16:34:44.107Z,44.85
2019-04-27T16:37:22.284Z,44.82
2019-04-27T16:39:50.106Z,45.06
2019-04-27T16:42:20.288Z,45.23
2019-04-27T16:44:53.102Z,45.25
2019-04-27T16:47:24.607Z,45.02
2019-04-27T16:49:54.178Z,45.01
2019-04-27T16:52:24.294Z,44.79
2019-04-27T16:54:57.323Z,44.68
2019-04-27T16:57:28.079Z,44.84
2019-04-27T17:00:00.977Z,44.85
2019-04-27T17:02:30.136Z,44.51
2019-04-27T17:05:00.316Z,44.50
2019-04-27T17:07:37.373Z,43.79
2019-04-27T17:10:02.337Z,44.10
2019-04-27T17:12:37.685Z,44.04
2019-04-27T17:15:22.648Z,43.97
2019-04-27T17:18:15.008Z,44.11
2019-04-27T17:20:48.285Z,44.04
2019-04-27T17:23:29.413Z,44.36
2019-04-27T17:26:04.437Z,44.37
2019-04-27T17:28:59.203Z,44.31
2019-04-27T17:31:30.744Z,44.34
2019-04-27T17:34:01.945Z,44.19
2019-04-27T17:36:33.681Z,44.21
2019-04-27T17:39:05.452Z,44.47
2019-04-27T17:41:35.671Z,44.63
2019-04-27T17:44:06.000Z,44.84
2019-04-27T17:46:36.153Z,44.88
2019-04-27T17:49:06.285Z,45.08
2019-04-27T17:51:42.937Z,45.13
2019-04-27T17:54:11.375Z,45.39
2019-04-27T17:56:48.416Z,45.51
2019-04-27T17:59:17.271Z,45.78
2019-04-27T18:01:43.810Z,45.58
2019-04-27T18:04:13.925Z,45.68
2019-04-27T18:06:44.159Z,45.32
2019-04-27T18:09:19.018Z,45.49
2019-04-27T18:11:50.390Z,45.66
2019-04-27T18:14:20.750Z,45.40
2019-04-27T18:16:51.725Z,45.38
2019-04-27T18:19:30.235Z,45.29
2019-04-27T18:22:01.921Z,45.37
2019-04-27T18:24:49.079Z,45.44
2019-04-27T18:27:38.921Z,45.27
2019-04-27T18:30:33.780Z,44.96
2019-04-27T18:33:03.361Z,45.37
2019-04-27T18:35:33.520Z,45.44
2019-04-27T18:38:03.651Z,45.62
2019-04-27T18:40:33.785Z,45.86
2019-04-27T18:43:06.478Z,45.87
2019-04-27T18:45:39.820Z,45.96
2019-04-27T18:48:14.885Z,46.14
2019-04-27T18:51:06.859Z,46.34
2019-04-27T18:53:37.014Z,46.39
2019-04-27T18:56:10.114Z,46.58
2019-04-27T18:58:38.980Z,46.71
2019-04-27T19:01:09.095Z,46.83
2019-04-27T19:03:39.253Z,47.06
2019-04-27T19:06:10.365Z,47.11
2019-04-27T19:08:40.512Z,47.39
2019-04-27T19:11:10.648Z,47.45
2019-04-27T19:13:40.877Z,47.95
2019-04-27T19:16:11.030Z,47.96
2019-04-27T19:18:41.248Z,48.20
2019-04-27T19:21:11.476Z,48.27
2019-04-27T19:23:41.660Z,48.42
2019-04-27T19:26:20.460Z,48.52
2019-04-27T19:29:01.902Z,48.63
2019-04-27T19:31:35.071Z,48.86
2019-04-27T19:34:05.219Z,48.85
2019-04-27T19:36:35.363Z,49.01
2019-04-27T19:39:08.767Z,49.05
2019-04-27T19:41:39.559Z,49.19
2019-04-27T19:44:10.203Z,49.36
2019-04-27T19:46:41.351Z,49.67
2019-04-27T19:49:11.503Z,49.89
2019-04-27T19:51:41.688Z,49.91
2019-04-27T19:54:11.853Z,50.02
2019-04-27T19:56:41.970Z,50.07
2019-04-27T19:59:18.891Z,50.15
2019-04-27T20:01:49.887Z,50.38
2019-04-27T20:04:31.070Z,50.57
2019-04-27T20:07:02.440Z,50.70
2019-04-27T20:09:50.613Z,50.62
2019-04-27T20:12:21.377Z,50.80
2019-04-27T20:14:57.624Z,50.70
2019-04-27T20:17:31.369Z,51.05
2019-04-27T20:20:02.099Z,51.05
2019-04-27T20:22:32.807Z,50.91
2019-04-27T20:25:02.980Z,51.19
2019-04-27T20:27:46.227Z,50.79
2019-04-27T20:30:08.616Z,51.38
2019-04-27T20:32:39.813Z,51.35
2019-04-27T20:35:11.696Z,51.50
2019-04-27T20:37:43.037Z,51.67
2019-04-27T20:40:13.511Z,51.75
2019-04-27T20:42:43.883Z,52.18
2019-04-27T20:45:14.374Z,52.11
2019-04-27T20:47:44.592Z,52.53
2019-04-27T20:50:14.893Z,52.70
2019-04-27T20:52:56.372Z,52.94
2019-04-27T20:55:26.651Z,52.98
2019-04-27T20:58:02.617Z,52.73
2019-04-27T21:00:28.711Z,52.65
2019-04-27T21:03:11.964Z,52.90
2019-04-27T21:06:01.076Z,53.09
2019-04-27T21:08:33.884Z,53.12
2019-04-27T21:11:04.989Z,53.35
2019-04-27T21:13:35.111Z,53.24
2019-04-27T21:16:06.365Z,53.83
2019-04-27T21:18:36.507Z,53.58
2019-04-27T21:21:06.647Z,53.57
2019-04-27T21:23:38.177Z,53.35
2019-04-27T21:26:08.311Z,53.52
2019-04-27T21:28:38.434Z,53.67
2019-04-27T21:31:08.736Z,54.02
2019-04-27T21:33:40.883Z,53.67
2019-04-27T21:36:11.737Z,54.04
2019-04-27T21:38:42.880Z,53.97
2019-04-27T21:41:13.298Z,54.25
2019-04-27T21:43:43.824Z,54.19
2019-04-27T21:46:14.021Z,54.07
2019-04-27T21:48:44.156Z,54.30
2019-04-27T21:51:15.400Z,54.30
2019-04-27T21:53:53.750Z,54.40
2019-04-27T21:56:23.930Z,54.49
2019-04-27T21:58:54.043Z,54.43
2019-04-27T22:01:33.908Z,54.46
2019-04-27T22:04:05.841Z,54.32
2019-04-27T22:06:36.048Z,54.35
2019-04-27T22:09:10.768Z,54.38
2019-04-27T22:11:42.506Z,54.53
2019-04-27T22:14:12.630Z,54.28
2019-04-27T22:16:42.773Z,54.19
2019-04-27T22:19:13.293Z,54.33
2019-04-27T22:21:43.603Z,54.26
2019-04-27T22:24:24.735Z,54.23
2019-04-27T22:26:54.860Z,54.28
2019-04-27T22:29:24.969Z,54.25
2019-04-27T22:31:55.102Z,54.20
2019-04-27T22:34:25.248Z,54.29
2019-04-27T22:36:55.472Z,54.47
2019-04-27T22:39:44.538Z,54.57
2019-04-27T22:42:33.495Z,54.60
2019-04-27T22:45:13.189Z,54.77
2019-04-27T22:47:43.331Z,54.87
2019-04-27T22:50:13.462Z,55.00
2019-04-27T22:52:43.720Z,54.96
2019-04-27T22:55:13.871Z,55.25
2019-04-27T22:57:51.627Z,55.02
2019-04-27T23:00:33.014Z,55.07
2019-04-27T23:03:05.143Z,55.08
2019-04-27T23:05:35.256Z,55.08
2019-04-27T23:08:05.403Z,55.30
2019-04-27T23:10:35.522Z,55.16
2019-04-27T23:13:05.675Z,55.33
2019-04-27T23:15:41.242Z,55.30
2019-04-27T23:18:11.325Z,55.62
2019-04-27T23:20:42.543Z,55.71
2019-04-27T23:23:12.756Z,55.51
2019-04-27T23:25:42.890Z,55.61
2019-04-27T23:28:13.038Z,55.40
2019-04-27T23:31:11.485Z,55.68
2019-04-27T23:33:44.520Z,55.66
2019-04-27T23:36:14.691Z,55.96
2019-04-27T23:38:44.858Z,56.07
2019-04-27T23:41:14.975Z,55.98
2019-04-27T23:43:45.112Z,56.08
2019-04-27T23:46:15.218Z,56.22
2019-04-27T23:48:45.363Z,56.31
2019-04-27T23:51:40.302Z,56.34
2019-04-27T23:54:11.586Z,56.38
2019-04-27T23:56:42.074Z,56.61
2019-04-27T23:59:24.193Z,56.79
